sensor_id;sensor_type;location;lat;lon;timestamp;pressure;altitude;pressure_sealevel;temperature;humidity
53960;BME280;39866;48.638;-2.020;2023-02-14T00:01:15;102999.19;;;11.93;59.72
53960;BME280;39866;48.638;-2.020;2023-02-14T00:03:41;103002.72;;;11.87;60.04
53960;BME280;39866;48.638;-2.020;2023-02-14T00:06:07;103000.09;;;12.01;60.05
53960;BME280;39866;48.638;-2.020;2023-02-14T00:08:33;102997.41;;;11.90;60.34
53960;BME280;39866;48.638;-2.020;2023-02-14T00:10:59;103000.09;;;11.89;60.66
53960;BME280;39866;48.638;-2.020;2023-02-14T00:13:24;102997.38;;;11.87;60.26
53960;BME280;39866;48.638;-2.020;2023-02-14T00:15:49;102999.19;;;12.04;60.25
53960;BME280;39866;48.638;-2.020;2023-02-14T00:18:15;102994.75;;;11.94;60.36
53960;BME280;39866;48.638;-2.020;2023-02-14T00:20:40;102999.19;;;11.88;60.20
53960;BME280;39866;48.638;-2.020;2023-02-14T00:23:05;103001.00;;;12.06;60.26
53960;BME280;39866;48.638;-2.020;2023-02-14T00:25:32;102988.50;;;11.87;60.26
53960;BME280;39866;48.638;-2.020;2023-02-14T00:27:58;102994.75;;;11.94;60.29
53960;BME280;39866;48.638;-2.020;2023-02-14T00:30:23;102993.88;;;12.02;60.11
53960;BME280;39866;48.638;-2.020;2023-02-14T00:32:48;102984.94;;;11.86;60.46
53960;BME280;39866;48.638;-2.020;2023-02-14T00:35:14;102988.50;;;11.92;60.90
53960;BME280;39866;48.638;-2.020;2023-02-14T00:37:39;102987.63;;;12.02;60.78
53960;BME280;39866;48.638;-2.020;2023-02-14T00:40:06;102984.97;;;12.05;60.75
53960;BME280;39866;48.638;-2.020;2023-02-14T00:42:31;102983.16;;;11.95;60.68
53960;BME280;39866;48.638;-2.020;2023-02-14T00:44:56;102990.31;;;12.02;60.73
53960;BME280;39866;48.638;-2.020;2023-02-14T00:47:22;102983.19;;;12.01;60.77
53960;BME280;39866;48.638;-2.020;2023-02-14T00:49:47;102981.38;;;12.00;60.67
53960;BME280;39866;48.638;-2.020;2023-02-14T00:52:12;102979.63;;;11.88;60.70
53960;BME280;39866;48.638;-2.020;2023-02-14T00:54:38;102969.78;;;11.81;60.59
53960;BME280;39866;48.638;-2.020;2023-02-14T00:57:03;102974.25;;;11.91;61.17
53960;BME280;39866;48.638;-2.020;2023-02-14T00:59:28;102973.31;;;11.71;61.06
53960;BME280;39866;48.638;-2.020;2023-02-14T01:01:54;102964.44;;;11.72;60.77
53960;BME280;39866;48.638;-2.020;2023-02-14T01:04:19;102968.84;;;11.65;60.54
53960;BME280;39866;48.638;-2.020;2023-02-14T01:06:44;102966.19;;;11.79;60.96
53960;BME280;39866;48.638;-2.020;2023-02-14T01:09:10;102967.97;;;11.74;60.49
53960;BME280;39866;48.638;-2.020;2023-02-14T01:11:35;102959.97;;;11.72;60.73
53960;BME280;39866;48.638;-2.020;2023-02-14T01:14:00;102961.81;;;11.85;60.35
53960;BME280;39866;48.638;-2.020;2023-02-14T01:16:27;102931.50;;;11.70;59.96
53960;BME280;39866;48.638;-2.020;2023-02-14T01:18:52;102961.81;;;11.95;60.36
53960;BME280;39866;48.638;-2.020;2023-02-14T01:21:27;102948.47;;;11.88;60.38
53960;BME280;39866;48.638;-2.020;2023-02-14T01:23:54;102955.59;;;12.00;60.15
53960;BME280;39866;48.638;-2.020;2023-02-14T01:26:21;102952.94;;;11.93;59.67
53960;BME280;39866;48.638;-2.020;2023-02-14T01:28:47;102952.03;;;11.97;59.91
53960;BME280;39866;48.638;-2.020;2023-02-14T01:31:18;102954.69;;;11.94;59.92
53960;BME280;39866;48.638;-2.020;2023-02-14T01:33:46;102953.81;;;11.85;60.23
53960;BME280;39866;48.638;-2.020;2023-02-14T01:38:41;102956.44;;;11.76;60.45
53960;BME280;39866;48.638;-2.020;2023-02-14T01:41:06;102956.47;;;11.95;59.93
53960;BME280;39866;48.638;-2.020;2023-02-14T01:43:57;102950.22;;;11.91;59.91
53960;BME280;39866;48.638;-2.020;2023-02-14T01:46:25;102954.69;;;12.00;59.89
53960;BME280;39866;48.638;-2.020;2023-02-14T01:48:54;102952.94;;;11.93;59.89
53960;BME280;39866;48.638;-2.020;2023-02-14T01:51:21;102944.84;;;11.79;60.09
53960;BME280;39866;48.638;-2.020;2023-02-14T01:53:47;102951.97;;;11.75;60.51
53960;BME280;39866;48.638;-2.020;2023-02-14T01:56:19;102959.97;;;11.60;60.71
53960;BME280;39866;48.638;-2.020;2023-02-14T01:58:45;102960.00;;;11.83;60.37
53960;BME280;39866;48.638;-2.020;2023-02-14T02:01:15;102954.69;;;11.84;60.57
53960;BME280;39866;48.638;-2.020;2023-02-14T02:03:46;102952.03;;;11.90;60.25
53960;BME280;39866;48.638;-2.020;2023-02-14T02:06:16;102940.41;;;11.73;60.37
53960;BME280;39866;48.638;-2.020;2023-02-14T02:09:48;102956.41;;;11.73;60.09
53960;BME280;39866;48.638;-2.020;2023-02-14T02:11:53;102953.75;;;11.82;60.38
53960;BME280;39866;48.638;-2.020;2023-02-14T02:14:20;102961.81;;;11.95;60.52
53960;BME280;39866;48.638;-2.020;2023-02-14T02:17:17;102954.72;;;12.01;60.01
53960;BME280;39866;48.638;-2.020;2023-02-14T02:40:21;102932.38;;;11.65;59.43
53960;BME280;39866;48.638;-2.020;2023-02-14T02:42:23;102929.69;;;11.62;59.64
53960;BME280;39866;48.638;-2.020;2023-02-14T02:47:32;102933.22;;;11.51;59.57
53960;BME280;39866;48.638;-2.020;2023-02-14T02:50:17;102929.69;;;11.52;59.26
53960;BME280;39866;48.638;-2.020;2023-02-14T02:55:41;102924.31;;;11.43;59.11
53960;BME280;39866;48.638;-2.020;2023-02-14T02:58:45;102922.50;;;11.19;59.44
53960;BME280;39866;48.638;-2.020;2023-02-14T03:01:15;102908.28;;;11.30;59.29
53960;BME280;39866;48.638;-2.020;2023-02-14T03:03:45;102910.06;;;11.19;59.46
53960;BME280;39866;48.638;-2.020;2023-02-14T03:06:31;102907.41;;;11.28;59.40
53960;BME280;39866;48.638;-2.020;2023-02-14T03:08:56;102908.25;;;11.21;59.41
53960;BME280;39866;48.638;-2.020;2023-02-14T03:11:23;102908.25;;;11.18;59.27
53960;BME280;39866;48.638;-2.020;2023-02-14T03:14:16;102906.53;;;11.32;59.35
53960;BME280;39866;48.638;-2.020;2023-02-14T03:22:36;102897.59;;;11.16;59.49
53960;BME280;39866;48.638;-2.020;2023-02-14T03:27:51;102894.81;;;10.86;59.78
53960;BME280;39866;48.638;-2.020;2023-02-14T03:33:24;102888.56;;;10.79;59.40
53960;BME280;39866;48.638;-2.020;2023-02-14T03:41:00;102877.88;;;10.76;58.69
53960;BME280;39866;48.638;-2.020;2023-02-14T03:43:36;102883.25;;;10.85;58.74
53960;BME280;39866;48.638;-2.020;2023-02-14T03:48:34;102890.41;;;10.96;57.99
53960;BME280;39866;48.638;-2.020;2023-02-14T03:51:01;102884.19;;;10.95;58.04
53960;BME280;39866;48.638;-2.020;2023-02-14T03:53:30;102883.31;;;11.04;58.25
53960;BME280;39866;48.638;-2.020;2023-02-14T03:58:34;102893.03;;;10.86;58.14
53960;BME280;39866;48.638;-2.020;2023-02-14T04:01:19;102888.63;;;10.95;57.91
53960;BME280;39866;48.638;-2.020;2023-02-14T04:03:46;102882.38;;;10.93;57.58
53960;BME280;39866;48.638;-2.020;2023-02-14T04:06:12;102891.19;;;10.76;57.31
53960;BME280;39866;48.638;-2.020;2023-02-14T04:08:38;102890.38;;;10.93;57.63
53960;BME280;39866;48.638;-2.020;2023-02-14T04:11:04;102888.56;;;10.85;57.31
53960;BME280;39866;48.638;-2.020;2023-02-14T04:13:31;102891.31;;;10.95;57.16
53960;BME280;39866;48.638;-2.020;2023-02-14T04:15:56;102894.00;;;11.10;57.19
53960;BME280;39866;48.638;-2.020;2023-02-14T04:18:21;102896.63;;;10.98;56.53
53960;BME280;39866;48.638;-2.020;2023-02-14T04:21:05;102893.97;;;11.01;56.38
53960;BME280;39866;48.638;-2.020;2023-02-14T04:23:30;102893.09;;;11.05;56.54
53960;BME280;39866;48.638;-2.020;2023-02-14T04:25:56;102888.72;;;11.14;56.21
53960;BME280;39866;48.638;-2.020;2023-02-14T04:28:21;102888.69;;;11.07;56.20
53960;BME280;39866;48.638;-2.020;2023-02-14T04:30:47;102894.84;;;11.01;55.80
53960;BME280;39866;48.638;-2.020;2023-02-14T04:33:12;102886.88;;;11.01;55.94
53960;BME280;39866;48.638;-2.020;2023-02-14T04:35:37;102885.06;;;10.96;56.04
53960;BME280;39866;48.638;-2.020;2023-02-14T04:38:03;102880.63;;;10.98;55.82
53960;BME280;39866;48.638;-2.020;2023-02-14T04:40:29;102876.03;;;10.63;56.75
53960;BME280;39866;48.638;-2.020;2023-02-14T04:42:55;102876.78;;;10.40;57.15
53960;BME280;39866;48.638;-2.020;2023-02-14T04:45:20;102870.69;;;10.54;56.62
53960;BME280;39866;48.638;-2.020;2023-02-14T04:47:46;102873.41;;;10.66;56.79
53960;BME280;39866;48.638;-2.020;2023-02-14T04:50:11;102875.06;;;10.47;56.87
53960;BME280;39866;48.638;-2.020;2023-02-14T04:52:37;102870.69;;;10.54;56.62
53960;BME280;39866;48.638;-2.020;2023-02-14T04:55:03;102868.06;;;10.61;56.34
53960;BME280;39866;48.638;-2.020;2023-02-14T04:57:29;102869.00;;;10.76;56.44
53960;BME280;39866;48.638;-2.020;2023-02-14T04:59:55;102866.28;;;10.65;56.69
53960;BME280;39866;48.638;-2.020;2023-02-14T05:02:20;102867.22;;;10.76;56.54
53960;BME280;39866;48.638;-2.020;2023-02-14T05:04:45;102870.78;;;10.81;56.22
53960;BME280;39866;48.638;-2.020;2023-02-14T05:07:11;102879.69;;;10.83;55.88
53960;BME280;39866;48.638;-2.020;2023-02-14T05:09:36;102880.56;;;10.78;56.20
53960;BME280;39866;48.638;-2.020;2023-02-14T05:12:02;102883.22;;;10.79;55.92
53960;BME280;39866;48.638;-2.020;2023-02-14T05:14:27;102884.16;;;10.89;55.71
53960;BME280;39866;48.638;-2.020;2023-02-14T05:16:52;102877.84;;;10.73;55.60
53960;BME280;39866;48.638;-2.020;2023-02-14T05:19:18;102876.97;;;10.70;55.94
53960;BME280;39866;48.638;-2.020;2023-02-14T05:21:43;102878.78;;;10.78;55.53
53960;BME280;39866;48.638;-2.020;2023-02-14T05:24:09;102880.47;;;10.64;55.47
53960;BME280;39866;48.638;-2.020;2023-02-14T05:26:34;102878.72;;;10.63;55.49
53960;BME280;39866;48.638;-2.020;2023-02-14T05:28:59;102872.50;;;10.64;55.37
53960;BME280;39866;48.638;-2.020;2023-02-14T05:31:25;102881.34;;;10.60;55.58
53960;BME280;39866;48.638;-2.020;2023-02-14T05:33:50;102875.09;;;10.52;55.48
53960;BME280;39866;48.638;-2.020;2023-02-14T05:36:15;102862.66;;;10.51;55.45
53960;BME280;39866;48.638;-2.020;2023-02-14T05:38:41;102870.66;;;10.49;55.60
53960;BME280;39866;48.638;-2.020;2023-02-14T05:41:06;102868.88;;;10.53;56.00
53960;BME280;39866;48.638;-2.020;2023-02-14T05:43:31;102874.13;;;10.39;55.81
53960;BME280;39866;48.638;-2.020;2023-02-14T05:45:57;102875.97;;;10.52;55.79
53960;BME280;39866;48.638;-2.020;2023-02-14T05:48:22;102870.66;;;10.57;55.29
53960;BME280;39866;48.638;-2.020;2023-02-14T05:50:47;102872.31;;;10.36;56.12
53960;BME280;39866;48.638;-2.020;2023-02-14T05:53:13;102874.13;;;10.37;55.88
53960;BME280;39866;48.638;-2.020;2023-02-14T05:55:39;102869.53;;;10.18;56.16
53960;BME280;39866;48.638;-2.020;2023-02-14T05:58:05;102866.88;;;10.24;56.10
53960;BME280;39866;48.638;-2.020;2023-02-14T06:00:30;102880.25;;;10.27;56.12
53960;BME280;39866;48.638;-2.020;2023-02-14T06:02:55;102864.22;;;10.16;56.23
53960;BME280;39866;48.638;-2.020;2023-02-14T06:05:21;102874.78;;;10.10;56.40
53960;BME280;39866;48.638;-2.020;2023-02-14T06:07:49;102871.09;;;9.88;56.63
53960;BME280;39866;48.638;-2.020;2023-02-14T06:10:17;102867.59;;;9.97;56.48
53960;BME280;39866;48.638;-2.020;2023-02-14T06:12:42;102873.84;;;10.04;56.13
53960;BME280;39866;48.638;-2.020;2023-02-14T06:15:08;102873.09;;;10.23;55.72
53960;BME280;39866;48.638;-2.020;2023-02-14T06:17:33;102868.53;;;10.01;55.67
53960;BME280;39866;48.638;-2.020;2023-02-14T06:19:59;102863.41;;;10.25;55.88
53960;BME280;39866;48.638;-2.020;2023-02-14T06:22:24;102872.22;;;10.24;55.66
53960;BME280;39866;48.638;-2.020;2023-02-14T06:24:49;102871.25;;;10.10;55.87
53960;BME280;39866;48.638;-2.020;2023-02-14T06:27:15;102867.66;;;10.08;55.75
53960;BME280;39866;48.638;-2.020;2023-02-14T06:29:40;102865.03;;;10.09;55.33
53960;BME280;39866;48.638;-2.020;2023-02-14T06:32:05;102870.28;;;9.97;55.86
53960;BME280;39866;48.638;-2.020;2023-02-14T06:34:34;102863.06;;;9.85;56.06
53960;BME280;39866;48.638;-2.020;2023-02-14T06:36:59;102863.72;;;9.58;56.65
53960;BME280;39866;48.638;-2.020;2023-02-14T06:39:25;102867.50;;;9.86;56.05
53960;BME280;39866;48.638;-2.020;2023-02-14T06:41:50;102858.59;;;9.83;56.03
53960;BME280;39866;48.638;-2.020;2023-02-14T06:44:16;102852.28;;;9.70;55.49
53960;BME280;39866;48.638;-2.020;2023-02-14T06:46:41;102863.13;;;9.93;55.42
53960;BME280;39866;48.638;-2.020;2023-02-14T06:49:08;102861.44;;;10.01;54.95
53960;BME280;39866;48.638;-2.020;2023-02-14T06:51:33;102857.03;;;10.06;54.91
53960;BME280;39866;48.638;-2.020;2023-02-14T06:53:58;102858.88;;;10.20;54.66
53960;BME280;39866;48.638;-2.020;2023-02-14T06:56:24;102861.47;;;10.12;54.82
53960;BME280;39866;48.638;-2.020;2023-02-14T06:58:49;102843.75;;;10.11;54.53
53960;BME280;39866;48.638;-2.020;2023-02-14T07:01:14;102854.44;;;10.17;53.78
53960;BME280;39866;48.638;-2.020;2023-02-14T07:03:40;102849.22;;;10.26;53.59
53960;BME280;39866;48.638;-2.020;2023-02-14T07:06:06;102854.56;;;10.32;53.77
53960;BME280;39866;48.638;-2.020;2023-02-14T07:08:31;102864.28;;;10.26;54.02
53960;BME280;39866;48.638;-2.020;2023-02-14T07:10:57;102858.91;;;10.24;53.92
53960;BME280;39866;48.638;-2.020;2023-02-14T07:13:23;102863.25;;;10.08;54.16
53960;BME280;39866;48.638;-2.020;2023-02-14T07:15:48;102863.22;;;10.07;54.42
53960;BME280;39866;48.638;-2.020;2023-02-14T07:18:13;102861.66;;;10.30;54.00
53960;BME280;39866;48.638;-2.020;2023-02-14T07:20:39;102859.75;;;10.20;53.83
53960;BME280;39866;48.638;-2.020;2023-02-14T07:23:05;102864.38;;;10.39;53.71
53960;BME280;39866;48.638;-2.020;2023-02-14T07:25:30;102866.88;;;10.24;53.60
53960;BME280;39866;48.638;-2.020;2023-02-14T07:27:55;102872.06;;;10.03;54.11
53960;BME280;39866;48.638;-2.020;2023-02-14T07:30:21;102868.53;;;10.04;54.33
53960;BME280;39866;48.638;-2.020;2023-02-14T07:32:46;102873.09;;;10.23;53.84
53960;BME280;39866;48.638;-2.020;2023-02-14T07:35:12;102872.22;;;10.21;53.63
53960;BME280;39866;48.638;-2.020;2023-02-14T07:37:37;102856.41;;;10.43;53.25
53960;BME280;39866;48.638;-2.020;2023-02-14T07:40:04;102877.66;;;10.33;53.42
53960;BME280;39866;48.638;-2.020;2023-02-14T07:42:29;102877.72;;;10.43;53.04
53960;BME280;39866;48.638;-2.020;2023-02-14T07:44:55;102881.25;;;10.43;53.21
53960;BME280;39866;48.638;-2.020;2023-02-14T07:47:20;102874.19;;;10.48;53.44
53960;BME280;39866;48.638;-2.020;2023-02-14T07:49:45;102878.66;;;10.54;53.16
53960;BME280;39866;48.638;-2.020;2023-02-14T07:52:11;102891.09;;;10.56;52.85
53960;BME280;39866;48.638;-2.020;2023-02-14T07:54:36;102875.94;;;10.48;52.80
53960;BME280;39866;48.638;-2.020;2023-02-14T07:57:03;102888.41;;;10.50;53.07
53960;BME280;39866;48.638;-2.020;2023-02-14T07:59:28;102885.78;;;10.61;52.78
53960;BME280;39866;48.638;-2.020;2023-02-14T08:01:54;102882.31;;;10.70;52.73
53960;BME280;39866;48.638;-2.020;2023-02-14T08:04:19;102890.25;;;10.62;52.72
53960;BME280;39866;48.638;-2.020;2023-02-14T08:06:45;102888.38;;;10.49;52.28
53960;BME280;39866;48.638;-2.020;2023-02-14T08:09:11;102881.22;;;10.38;52.70
53960;BME280;39866;48.638;-2.020;2023-02-14T08:11:51;102873.97;;;10.19;52.98
53960;BME280;39866;48.638;-2.020;2023-02-14T08:14:36;102882.78;;;10.10;53.28
53960;BME280;39866;48.638;-2.020;2023-02-14T08:17:01;102880.97;;;10.08;53.72
53960;BME280;39866;48.638;-2.020;2023-02-14T08:19:27;102887.41;;;10.31;53.56
53960;BME280;39866;48.638;-2.020;2023-02-14T08:21:52;102881.25;;;10.45;52.41
53960;BME280;39866;48.638;-2.020;2023-02-14T08:24:18;102880.22;;;10.23;53.19
53960;BME280;39866;48.638;-2.020;2023-02-14T08:26:43;102872.41;;;10.46;53.28
53960;BME280;39866;48.638;-2.020;2023-02-14T08:29:08;102887.50;;;10.47;52.96
53960;BME280;39866;48.638;-2.020;2023-02-14T08:31:34;102876.91;;;10.59;53.00
53960;BME280;39866;48.638;-2.020;2023-02-14T08:33:59;102878.66;;;10.55;52.49
53960;BME280;39866;48.638;-2.020;2023-02-14T08:36:24;102885.78;;;10.53;52.55
53960;BME280;39866;48.638;-2.020;2023-02-14T08:38:50;102881.38;;;10.63;52.80
53960;BME280;39866;48.638;-2.020;2023-02-14T08:41:17;102865.34;;;10.49;52.52
53960;BME280;39866;48.638;-2.020;2023-02-14T08:43:43;102873.44;;;10.75;52.42
53960;BME280;39866;48.638;-2.020;2023-02-14T08:46:09;102871.72;;;10.89;52.54
53960;BME280;39866;48.638;-2.020;2023-02-14T08:48:36;102871.69;;;10.80;52.25
53960;BME280;39866;48.638;-2.020;2023-02-14T08:51:10;102875.28;;;10.93;52.07
53960;BME280;39866;48.638;-2.020;2023-02-14T08:53:37;102867.31;;;10.96;52.15
53960;BME280;39866;48.638;-2.020;2023-02-14T08:56:04;102868.22;;;11.04;52.44
53960;BME280;39866;48.638;-2.020;2023-02-14T08:58:30;102872.69;;;11.11;51.99
53960;BME280;39866;48.638;-2.020;2023-02-14T09:00:55;102868.25;;;11.10;52.44
53960;BME280;39866;48.638;-2.020;2023-02-14T09:03:21;102864.66;;;11.02;52.50
53960;BME280;39866;48.638;-2.020;2023-02-14T09:05:46;102866.47;;;11.14;52.18
53960;BME280;39866;48.638;-2.020;2023-02-14T09:08:12;102859.34;;;11.13;51.90
53960;BME280;39866;48.638;-2.020;2023-02-14T09:10:37;102850.44;;;11.03;51.88
53960;BME280;39866;48.638;-2.020;2023-02-14T09:13:02;102851.38;;;11.16;51.60
53960;BME280;39866;48.638;-2.020;2023-02-14T09:15:28;102851.38;;;11.22;51.77
53960;BME280;39866;48.638;-2.020;2023-02-14T09:17:54;102843.38;;;11.18;51.52
53960;BME280;39866;48.638;-2.020;2023-02-14T09:20:20;102853.13;;;11.14;51.26
53960;BME280;39866;48.638;-2.020;2023-02-14T09:22:45;102850.41;;;10.96;51.48
53960;BME280;39866;48.638;-2.020;2023-02-14T09:25:11;102852.25;;;11.12;51.44
53960;BME280;39866;48.638;-2.020;2023-02-14T09:27:36;102844.25;;;11.12;51.94
53960;BME280;39866;48.638;-2.020;2023-02-14T09:30:03;102842.50;;;11.19;51.31
53960;BME280;39866;48.638;-2.020;2023-02-14T09:32:29;102840.72;;;11.28;51.35
53960;BME280;39866;48.638;-2.020;2023-02-14T09:34:55;102838.09;;;11.45;51.25
53960;BME280;39866;48.638;-2.020;2023-02-14T09:37:21;102841.59;;;11.26;51.21
53960;BME280;39866;48.638;-2.020;2023-02-14T09:40:05;102838.09;;;11.50;51.43
53960;BME280;39866;48.638;-2.020;2023-02-14T09:45:26;102835.44;;;11.60;51.24
53960;BME280;39866;48.638;-2.020;2023-02-14T09:50:49;102829.19;;;11.45;51.04
53960;BME280;39866;48.638;-2.020;2023-02-14T09:53:28;102828.31;;;11.61;51.31
53960;BME280;39866;48.638;-2.020;2023-02-14T09:58:33;102831.88;;;11.58;50.64
53960;BME280;39866;48.638;-2.020;2023-02-14T10:01:14;102822.09;;;11.82;50.32
53960;BME280;39866;48.638;-2.020;2023-02-14T10:03:59;102824.75;;;11.73;49.85
53960;BME280;39866;48.638;-2.020;2023-02-14T10:07:05;102825.69;;;11.84;50.10
53960;BME280;39866;48.638;-2.020;2023-02-14T10:09:59;102820.31;;;11.56;49.86
53960;BME280;39866;48.638;-2.020;2023-02-14T10:12:40;102823.84;;;11.54;49.60
53960;BME280;39866;48.638;-2.020;2023-02-14T10:15:18;102821.19;;;11.63;50.01
53960;BME280;39866;48.638;-2.020;2023-02-14T10:20:39;102834.56;;;11.90;49.49
53960;BME280;39866;48.638;-2.020;2023-02-14T10:23:34;102823.00;;;12.08;49.69
53960;BME280;39866;48.638;-2.020;2023-02-14T10:26:25;102823.00;;;11.96;49.52
53960;BME280;39866;48.638;-2.020;2023-02-14T10:28:52;102822.97;;;12.14;49.28
53960;BME280;39866;48.638;-2.020;2023-02-14T10:31:24;102823.81;;;12.24;48.93
53960;BME280;39866;48.638;-2.020;2023-02-14T10:33:56;102815.84;;;12.17;49.05
53960;BME280;39866;48.638;-2.020;2023-02-14T10:44:53;102816.72;;;12.14;49.11
53960;BME280;39866;48.638;-2.020;2023-02-14T10:47:54;102809.59;;;12.19;48.84
53960;BME280;39866;48.638;-2.020;2023-02-14T10:50:36;102811.34;;;12.31;49.39
53960;BME280;39866;48.638;-2.020;2023-02-14T10:55:43;102806.81;;;12.57;48.50
53960;BME280;39866;48.638;-2.020;2023-02-14T10:58:13;102798.81;;;12.54;48.51
53960;BME280;39866;48.638;-2.020;2023-02-14T11:03:13;102792.44;;;12.77;48.29
53960;BME280;39866;48.638;-2.020;2023-02-14T11:05:46;102794.19;;;12.87;47.60
53960;BME280;39866;48.638;-2.020;2023-02-14T11:08:24;102790.81;;;12.44;48.54
53960;BME280;39866;48.638;-2.020;2023-02-14T11:10:50;102788.81;;;12.88;47.74
53960;BME280;39866;48.638;-2.020;2023-02-14T11:13:30;102779.78;;;13.08;47.65
53960;BME280;39866;48.638;-2.020;2023-02-14T11:16:01;102782.53;;;12.99;47.25
53960;BME280;39866;48.638;-2.020;2023-02-14T11:18:27;102783.47;;;12.92;47.60
53960;BME280;39866;48.638;-2.020;2023-02-14T11:21:13;102769.88;;;13.28;46.93
53960;BME280;39866;48.638;-2.020;2023-02-14T11:23:45;102770.81;;;13.13;47.91
53960;BME280;39866;48.638;-2.020;2023-02-14T11:26:16;102770.81;;;13.17;47.58
53960;BME280;39866;48.638;-2.020;2023-02-14T11:29:11;102769.88;;;13.28;47.22
53960;BME280;39866;48.638;-2.020;2023-02-14T11:31:38;102757.25;;;13.46;47.15
53960;BME280;39866;48.638;-2.020;2023-02-14T11:34:21;102754.53;;;13.52;47.46
53960;BME280;39866;48.638;-2.020;2023-02-14T11:36:47;102754.34;;;13.70;47.21
53960;BME280;39866;48.638;-2.020;2023-02-14T11:39:31;102748.19;;;13.60;46.83
53960;BME280;39866;48.638;-2.020;2023-02-14T11:42:01;102754.63;;;13.40;47.37
53960;BME280;39866;48.638;-2.020;2023-02-14T11:44:30;102748.22;;;13.57;47.41
53960;BME280;39866;48.638;-2.020;2023-02-14T11:47:15;102745.28;;;13.83;47.26
53960;BME280;39866;48.638;-2.020;2023-02-14T11:49:41;102738.97;;;13.87;47.24
53960;BME280;39866;48.638;-2.020;2023-02-14T11:52:17;102737.38;;;13.70;46.07
53960;BME280;39866;48.638;-2.020;2023-02-14T11:54:50;102734.69;;;13.73;45.29
53960;BME280;39866;48.638;-2.020;2023-02-14T11:57:22;102735.56;;;13.76;44.00
53960;BME280;39866;48.638;-2.020;2023-02-14T11:59:53;102728.25;;;13.92;43.98
53960;BME280;39866;48.638;-2.020;2023-02-14T12:02:24;102721.06;;;13.94;43.10
53960;BME280;39866;48.638;-2.020;2023-02-14T12:04:55;102725.34;;;14.10;43.15
53960;BME280;39866;48.638;-2.020;2023-02-14T12:07:36;102717.25;;;14.17;42.31
53960;BME280;39866;48.638;-2.020;2023-02-14T12:21:13;102686.38;;;14.57;40.17
53960;BME280;39866;48.638;-2.020;2023-02-14T12:29:11;102670.28;;;14.57;39.98
53960;BME280;39866;48.638;-2.020;2023-02-14T12:31:45;102668.69;;;14.41;39.61
53960;BME280;39866;48.638;-2.020;2023-02-14T12:34:12;102665.00;;;14.51;39.75
53960;BME280;39866;48.638;-2.020;2023-02-14T12:37:01;102670.00;;;14.76;39.31
53960;BME280;39866;48.638;-2.020;2023-02-14T12:42:24;102656.91;;;14.53;39.44
53960;BME280;39866;48.638;-2.020;2023-02-14T12:48:43;102659.63;;;14.51;38.92
53960;BME280;39866;48.638;-2.020;2023-02-14T12:51:22;102648.22;;;14.35;40.54
53960;BME280;39866;48.638;-2.020;2023-02-14T12:57:12;102641.13;;;14.92;40.58
53960;BME280;39866;48.638;-2.020;2023-02-14T13:08:02;102625.03;;;14.92;40.10
53960;BME280;39866;48.638;-2.020;2023-02-14T13:10:47;102625.19;;;14.82;40.54
53960;BME280;39866;48.638;-2.020;2023-02-14T13:21:05;102595.19;;;15.10;39.66
53960;BME280;39866;48.638;-2.020;2023-02-14T13:23:36;102585.91;;;15.29;39.35
53960;BME280;39866;48.638;-2.020;2023-02-14T13:26:11;102578.69;;;15.33;39.01
53960;BME280;39866;48.638;-2.020;2023-02-14T13:28:49;102582.75;;;15.06;39.05
53960;BME280;39866;48.638;-2.020;2023-02-14T13:31:18;102576.88;;;15.33;39.08
53960;BME280;39866;48.638;-2.020;2023-02-14T13:33:51;102569.25;;;15.57;38.41
53960;BME280;39866;48.638;-2.020;2023-02-14T13:36:18;102571.50;;;15.33;38.54
53960;BME280;39866;48.638;-2.020;2023-02-14T13:38:49;102568.88;;;15.30;39.09
53960;BME280;39866;48.638;-2.020;2023-02-14T13:41:16;102571.81;;;15.65;38.44
53960;BME280;39866;48.638;-2.020;2023-02-14T13:43:55;102567.28;;;15.67;38.42
53960;BME280;39866;48.638;-2.020;2023-02-14T13:46:45;102562.03;;;15.60;38.33
53960;BME280;39866;48.638;-2.020;2023-02-14T13:49:25;102556.19;;;15.83;37.93
53960;BME280;39866;48.638;-2.020;2023-02-14T13:51:57;102546.06;;;15.96;37.75
53960;BME280;39866;48.638;-2.020;2023-02-14T13:54:47;102542.75;;;15.85;37.74
53960;BME280;39866;48.638;-2.020;2023-02-14T13:57:33;102532.13;;;15.79;37.78
53960;BME280;39866;48.638;-2.020;2023-02-14T14:02:44;102529.81;;;16.02;36.89
53960;BME280;39866;48.638;-2.020;2023-02-14T14:10:57;102515.50;;;16.02;37.01
53960;BME280;39866;48.638;-2.020;2023-02-14T14:18:51;102493.34;;;16.28;36.59
53960;BME280;39866;48.638;-2.020;2023-02-14T14:21:26;102492.72;;;16.18;37.31
53960;BME280;39866;48.638;-2.020;2023-02-14T14:26:44;102495.44;;;16.17;37.05
53960;BME280;39866;48.638;-2.020;2023-02-14T14:29:25;102482.59;;;16.28;36.20
53960;BME280;39866;48.638;-2.020;2023-02-14T14:31:51;102487.34;;;16.18;37.06
53960;BME280;39866;48.638;-2.020;2023-02-14T14:34:22;102492.66;;;16.21;36.08
53960;BME280;39866;48.638;-2.020;2023-02-14T14:36:50;102483.91;;;16.47;35.85
53960;BME280;39866;48.638;-2.020;2023-02-14T14:39:27;102486.16;;;16.64;36.20
53960;BME280;39866;48.638;-2.020;2023-02-14T14:41:52;102486.72;;;16.78;35.75
53960;BME280;39866;48.638;-2.020;2023-02-14T14:44:18;102488.75;;;17.03;35.65
53960;BME280;39866;48.638;-2.020;2023-02-14T14:46:44;102478.13;;;16.97;36.63
53960;BME280;39866;48.638;-2.020;2023-02-14T14:49:11;102483.69;;;17.23;35.92
53960;BME280;39866;48.638;-2.020;2023-02-14T14:51:37;102476.31;;;17.60;34.94
53960;BME280;39866;48.638;-2.020;2023-02-14T14:56:36;102470.63;;;17.98;33.37
53960;BME280;39866;48.638;-2.020;2023-02-14T14:59:16;102470.72;;;17.95;33.22
53960;BME280;39866;48.638;-2.020;2023-02-14T15:01:43;102457.66;;;17.83;33.97
53960;BME280;39866;48.638;-2.020;2023-02-14T15:06:34;102460.41;;;18.10;33.49
53960;BME280;39866;48.638;-2.020;2023-02-14T15:09:10;102455.13;;;18.33;32.54
53960;BME280;39866;48.638;-2.020;2023-02-14T15:11:36;102455.88;;;18.37;32.01